createdAt,value
2018-07-10T00:02:18.198Z,2.40
2018-07-10T00:04:58.230Z,2.50
2018-07-10T00:07:38.255Z,2.20
2018-07-10T00:10:25.730Z,2.30
2018-07-10T00:12:54.367Z,2.70
2018-07-10T00:15:22.974Z,2.30
2018-07-10T00:17:51.585Z,2.37
2018-07-10T00:20:20.126Z,2.03
2018-07-10T00:22:49.546Z,2.23
2018-07-10T00:25:18.103Z,2.40
2018-07-10T00:27:46.715Z,2.50
2018-07-10T00:30:15.494Z,2.17
2018-07-10T00:32:44.011Z,2.40
2018-07-10T00:35:12.612Z,2.47
2018-07-10T00:37:46.124Z,2.50
2018-07-10T00:40:14.843Z,2.00
2018-07-10T00:42:43.543Z,2.30
2018-07-10T00:45:12.061Z,2.20
2018-07-10T00:47:40.691Z,2.27
2018-07-10T00:50:09.238Z,2.30
2018-07-10T00:52:37.850Z,2.50
2018-07-10T00:55:06.450Z,2.50
2018-07-10T00:57:35.010Z,2.47
2018-07-10T01:00:03.764Z,2.20
2018-07-10T01:02:32.294Z,2.53
2018-07-10T01:05:00.889Z,2.33
2018-07-10T01:07:29.455Z,2.30
2018-07-10T01:09:58.019Z,2.30
2018-07-10T01:12:27.026Z,2.07
2018-07-10T01:14:55.767Z,2.40
2018-07-10T01:17:24.293Z,2.60
2018-07-10T01:19:52.890Z,2.07
2018-07-10T01:22:21.508Z,2.40
2018-07-10T01:24:50.253Z,3.10
2018-07-10T01:27:18.898Z,1.93
2018-07-10T01:29:48.442Z,2.40
2018-07-10T01:32:17.335Z,2.23
2018-07-10T01:34:45.894Z,2.17
2018-07-10T01:37:14.711Z,2.30
2018-07-10T01:39:43.462Z,1.97
2018-07-10T01:42:12.278Z,2.00
2018-07-10T01:44:40.878Z,2.17
2018-07-10T01:47:09.449Z,2.37
2018-07-10T01:49:38.062Z,1.93
2018-07-10T01:52:06.810Z,2.13
2018-07-10T01:54:35.510Z,2.10
2018-07-10T01:57:04.394Z,2.27
2018-07-10T01:59:32.962Z,2.23
2018-07-10T02:02:01.667Z,2.50
2018-07-10T02:04:30.195Z,2.07
2018-07-10T02:06:58.867Z,2.20
2018-07-10T02:09:27.569Z,2.10
2018-07-10T02:11:56.207Z,2.37
2018-07-10T02:14:24.886Z,2.33
2018-07-10T02:16:53.100Z,2.30
2018-07-10T02:19:22.726Z,2.10
2018-07-10T02:21:51.697Z,2.40
2018-07-10T02:24:24.443Z,1.90
2018-07-10T02:26:53.669Z,2.20
2018-07-10T02:29:22.455Z,2.40
2018-07-10T02:31:51.091Z,2.10
2018-07-10T02:34:19.653Z,2.30
2018-07-10T02:36:48.191Z,2.20
2018-07-10T02:39:17.192Z,1.83
2018-07-10T02:41:45.738Z,2.53
2018-07-10T02:44:14.334Z,2.10
2018-07-10T02:46:43.046Z,2.00
2018-07-10T02:49:17.695Z,2.37
2018-07-10T02:51:50.956Z,2.20
2018-07-10T02:54:21.685Z,2.30
2018-07-10T02:56:51.428Z,2.13
2018-07-10T02:59:20.323Z,2.10
2018-07-10T03:01:48.962Z,2.10
2018-07-10T03:04:17.562Z,2.30
2018-07-10T03:06:46.614Z,2.17
2018-07-10T03:09:15.364Z,2.00
2018-07-10T03:11:44.113Z,1.87
2018-07-10T03:14:12.839Z,2.10
2018-07-10T03:16:41.499Z,2.83
2018-07-10T03:19:11.209Z,2.20
2018-07-10T03:21:40.362Z,1.93
2018-07-10T03:24:09.222Z,2.20
2018-07-10T03:26:37.970Z,2.40
2018-07-10T03:29:06.873Z,2.23
2018-07-10T03:31:35.466Z,2.37
2018-07-10T03:34:04.224Z,2.07
2018-07-10T03:36:32.899Z,2.57
2018-07-10T03:39:02.879Z,2.03
2018-07-10T03:41:31.430Z,2.37
2018-07-10T03:44:00.154Z,2.00
2018-07-10T03:46:29.392Z,1.90
2018-07-10T03:48:58.046Z,2.03
2018-07-10T03:51:26.911Z,2.20
2018-07-10T03:53:55.510Z,2.80
2018-07-10T03:56:24.405Z,1.80
2018-07-10T03:58:55.640Z,2.20
2018-07-10T04:01:26.095Z,2.07
2018-07-10T04:03:55.170Z,2.13
2018-07-10T04:06:24.114Z,2.20
2018-07-10T04:08:52.807Z,2.20
2018-07-10T04:11:22.098Z,2.23
2018-07-10T04:13:50.769Z,2.57
2018-07-10T04:16:19.591Z,2.20
2018-07-10T04:18:48.163Z,2.37
2018-07-10T04:21:25.789Z,2.50
2018-07-10T04:24:04.477Z,2.40
2018-07-10T04:26:35.892Z,2.67
2018-07-10T04:29:09.723Z,2.80
2018-07-10T04:31:44.458Z,2.53
2018-07-10T04:34:13.030Z,2.00
2018-07-10T04:36:41.722Z,2.57
2018-07-10T04:39:10.270Z,2.03
2018-07-10T04:41:42.170Z,2.50
2018-07-10T04:44:13.374Z,3.27
2018-07-10T04:46:45.498Z,3.10
2018-07-10T04:49:36.346Z,2.43
2018-07-10T04:52:42.529Z,2.83
2018-07-10T04:55:13.858Z,3.03
2018-07-10T04:57:50.427Z,2.43
2018-07-10T05:00:19.002Z,2.83
2018-07-10T05:02:47.953Z,2.67
2018-07-10T05:05:16.562Z,2.57
2018-07-10T05:07:45.103Z,2.70
2018-07-10T05:10:13.840Z,2.93
2018-07-10T05:12:45.181Z,3.17
2018-07-10T05:15:13.982Z,3.57
2018-07-10T05:17:44.033Z,2.60
2018-07-10T05:20:12.985Z,2.80
2018-07-10T05:22:42.186Z,3.77
2018-07-10T05:25:10.964Z,3.10
2018-07-10T05:27:39.572Z,3.10
2018-07-10T05:30:08.175Z,4.10
2018-07-10T05:32:36.843Z,3.07
2018-07-10T05:35:05.550Z,3.70
2018-07-10T05:37:36.303Z,3.53
2018-07-10T05:40:08.559Z,3.23
2018-07-10T05:42:43.955Z,3.93
2018-07-10T05:45:14.107Z,3.30
2018-07-10T05:47:42.743Z,5.20
2018-07-10T05:50:16.472Z,3.70
2018-07-10T05:52:45.834Z,3.53
2018-07-10T05:55:19.766Z,4.20
2018-07-10T05:57:48.290Z,3.90
2018-07-10T06:00:16.883Z,4.63
2018-07-10T06:02:45.441Z,4.30
2018-07-10T06:05:14.316Z,4.20
2018-07-10T06:07:43.138Z,4.30
2018-07-10T06:10:11.686Z,5.40
2018-07-10T06:12:40.469Z,4.53
2018-07-10T06:15:09.264Z,5.73
2018-07-10T06:17:37.891Z,4.60
2018-07-10T06:20:06.740Z,4.93
2018-07-10T06:22:35.338Z,5.10
2018-07-10T06:25:05.662Z,5.07
2018-07-10T06:27:39.855Z,5.10
2018-07-10T06:30:10.144Z,5.40
2018-07-10T06:32:51.020Z,5.47
2018-07-10T06:35:25.084Z,5.50
2018-07-10T06:37:54.533Z,5.47
2018-07-10T06:40:23.163Z,5.70
2018-07-10T06:43:56.515Z,5.60
2018-07-10T06:46:31.527Z,6.80
2018-07-10T06:49:07.279Z,6.37
2018-07-10T06:51:37.506Z,5.73
2018-07-10T06:54:06.107Z,6.30
2018-07-10T06:56:34.718Z,5.40
2018-07-10T06:59:03.387Z,5.57
2018-07-10T07:01:32.018Z,6.47
2018-07-10T07:04:02.241Z,6.63
2018-07-10T07:06:31.795Z,6.00
2018-07-10T07:09:00.496Z,5.93
2018-07-10T07:11:29.217Z,5.30
2018-07-10T07:13:57.814Z,7.10
2018-07-10T07:16:26.446Z,7.67
2018-07-10T07:18:55.090Z,6.67
2018-07-10T07:21:23.832Z,6.37
2018-07-10T07:23:52.429Z,7.03
2018-07-10T07:26:21.446Z,6.77
2018-07-10T07:28:50.190Z,7.30
2018-07-10T07:31:19.288Z,6.40
2018-07-10T07:33:47.958Z,6.70
2018-07-10T07:36:16.668Z,6.77
2018-07-10T07:38:45.251Z,7.87
2018-07-10T07:41:13.855Z,9.40
2018-07-10T07:43:42.663Z,8.57
2018-07-10T07:46:11.144Z,8.53
2018-07-10T07:48:39.819Z,9.60
2018-07-10T07:51:08.453Z,10.70
2018-07-10T07:53:36.991Z,9.93
2018-07-10T07:56:06.302Z,9.83
2018-07-10T07:58:35.279Z,9.40
2018-07-10T08:01:03.971Z,10.80
2018-07-10T08:03:32.838Z,10.50
2018-07-10T08:06:01.591Z,9.10
2018-07-10T08:08:30.227Z,9.80
2018-07-10T08:10:58.835Z,10.63
2018-07-10T08:13:27.503Z,10.20
2018-07-10T08:15:56.229Z,9.40
2018-07-10T08:18:24.975Z,8.77
2018-07-10T08:20:53.724Z,10.87
2018-07-10T08:23:22.562Z,10.30
2018-07-10T08:25:51.274Z,8.93
2018-07-10T08:28:19.990Z,9.67
2018-07-10T08:30:48.945Z,10.03
2018-07-10T08:33:17.906Z,10.00
2018-07-10T08:35:46.835Z,10.30
2018-07-10T08:38:25.571Z,10.90
2018-07-10T08:40:54.134Z,10.60
2018-07-10T08:43:22.714Z,9.97
2018-07-10T08:45:51.335Z,10.93
2018-07-10T08:48:20.131Z,10.50
2018-07-10T08:50:48.831Z,11.27
2018-07-10T08:53:17.366Z,11.00
2018-07-10T08:55:46.066Z,9.80
2018-07-10T08:58:14.941Z,9.80
2018-07-10T09:00:43.541Z,11.37
2018-07-10T09:03:12.246Z,9.23
2018-07-10T09:05:40.803Z,7.93
2018-07-10T09:08:09.409Z,7.77
2018-07-10T09:10:38.039Z,9.30
2018-07-10T09:13:06.664Z,8.10
2018-07-10T09:15:35.590Z,8.13
2018-07-10T09:18:04.249Z,9.20
2018-07-10T09:20:50.562Z,7.43
2018-07-10T09:23:20.587Z,8.20
2018-07-10T09:25:52.855Z,7.17
2018-07-10T09:28:21.902Z,10.70
2018-07-10T09:30:50.982Z,11.00
2018-07-10T09:33:19.543Z,10.30
2018-07-10T09:35:48.158Z,12.60
2018-07-10T09:38:16.479Z,11.60
2018-07-10T09:40:44.835Z,13.43
2018-07-10T09:43:13.387Z,13.73
2018-07-10T09:45:42.040Z,13.97
2018-07-10T09:48:10.963Z,14.13
2018-07-10T09:50:39.915Z,14.43
2018-07-10T09:53:08.489Z,13.03
2018-07-10T09:55:37.208Z,13.87
2018-07-10T09:58:05.609Z,13.70
2018-07-10T10:00:40.144Z,13.47
2018-07-10T10:03:09.168Z,13.67
2018-07-10T10:05:41.182Z,14.10
2018-07-10T10:08:10.160Z,21.70
2018-07-10T10:10:39.054Z,13.83
2018-07-10T10:13:07.366Z,14.00
2018-07-10T10:15:36.751Z,13.77
2018-07-10T10:18:07.254Z,12.70
2018-07-10T10:20:38.189Z,13.00
2018-07-10T10:23:07.059Z,12.53
2018-07-10T10:25:38.517Z,11.77
2018-07-10T10:28:08.959Z,11.40
2018-07-10T10:30:38.801Z,13.37
2018-07-10T10:33:08.255Z,11.27
2018-07-10T10:35:36.929Z,11.70
2018-07-10T10:38:05.869Z,12.90
2018-07-10T10:40:37.590Z,10.13
2018-07-10T10:43:09.186Z,10.57
2018-07-10T10:45:40.693Z,9.70
2018-07-10T10:48:09.912Z,9.50
2018-07-10T10:50:39.928Z,9.27
2018-07-10T10:53:08.959Z,9.00
2018-07-10T10:55:37.499Z,10.47
2018-07-10T10:58:05.985Z,10.57
2018-07-10T11:00:35.099Z,9.57
2018-07-10T11:03:04.457Z,9.53
2018-07-10T11:05:33.798Z,9.10
2018-07-10T11:08:02.661Z,9.70
2018-07-10T11:10:31.885Z,8.60
2018-07-10T11:13:00.810Z,9.40
2018-07-10T11:15:29.505Z,8.70
2018-07-10T11:18:03.506Z,9.17
2018-07-10T11:20:56.000Z,9.00
2018-07-10T11:23:32.826Z,8.47
2018-07-10T11:26:07.922Z,9.60
2018-07-10T11:28:36.557Z,8.40
2018-07-10T11:31:05.279Z,8.47
2018-07-10T11:33:33.847Z,8.53
2018-07-10T11:36:02.747Z,9.30
2018-07-10T11:38:31.446Z,7.57
2018-07-10T11:41:00.053Z,8.53
2018-07-10T11:43:28.809Z,7.80
2018-07-10T11:45:57.461Z,8.07
2018-07-10T11:48:26.159Z,7.87
2018-07-10T11:50:54.703Z,8.23
2018-07-10T11:53:23.267Z,7.67
2018-07-10T11:55:51.913Z,7.43
2018-07-10T11:58:20.491Z,8.30
2018-07-10T12:00:49.354Z,7.10
2018-07-10T12:03:18.134Z,8.07
2018-07-10T12:05:46.708Z,8.27
2018-07-10T12:08:15.242Z,8.20
2018-07-10T12:10:46.530Z,8.10
2018-07-10T12:13:15.110Z,8.70
2018-07-10T12:15:43.895Z,8.50
2018-07-10T12:18:15.218Z,8.47
2018-07-10T12:20:44.379Z,8.60
2018-07-10T12:23:13.366Z,7.70
2018-07-10T12:25:43.415Z,8.57
2018-07-10T12:28:13.329Z,7.37
2018-07-10T12:30:42.333Z,7.80
2018-07-10T12:33:10.983Z,8.20
2018-07-10T12:35:40.092Z,8.03
2018-07-10T12:38:08.755Z,8.47
2018-07-10T12:40:37.359Z,7.60
2018-07-10T12:43:06.186Z,7.53
2018-07-10T12:45:34.878Z,7.90
2018-07-10T12:48:03.592Z,7.30
2018-07-10T12:50:32.259Z,7.73
2018-07-10T12:53:00.837Z,7.90
2018-07-10T12:55:29.574Z,8.70
2018-07-10T12:57:58.719Z,7.80
2018-07-10T13:00:28.652Z,7.37
2018-07-10T13:02:57.795Z,6.83
2018-07-10T13:05:28.910Z,7.33
2018-07-10T13:07:57.482Z,6.97
2018-07-10T13:10:26.059Z,6.80
2018-07-10T13:12:54.694Z,7.17
2018-07-10T13:15:23.398Z,8.17
2018-07-10T13:17:52.226Z,6.80
2018-07-10T13:20:20.991Z,6.80
2018-07-10T13:22:50.144Z,7.20
2018-07-10T13:25:18.733Z,6.33
2018-07-10T13:27:48.588Z,7.20
2018-07-10T13:30:17.215Z,6.93
2018-07-10T13:32:45.983Z,6.93
2018-07-10T13:35:14.764Z,6.63
2018-07-10T13:37:45.235Z,6.63
2018-07-10T13:40:13.782Z,6.13
2018-07-10T13:42:50.429Z,6.67
2018-07-10T13:45:19.683Z,5.63
2018-07-10T13:47:48.491Z,5.37
2018-07-10T13:50:19.712Z,5.20
2018-07-10T13:52:48.475Z,5.30
2018-07-10T13:55:17.323Z,5.97
2018-07-10T13:57:51.183Z,6.00
2018-07-10T14:00:20.666Z,5.53
2018-07-10T14:02:49.227Z,5.87
2018-07-10T14:05:17.902Z,5.00
2018-07-10T14:07:46.552Z,5.50
2018-07-10T14:10:15.093Z,4.63
2018-07-10T14:12:43.846Z,5.67
2018-07-10T14:15:12.492Z,5.03
2018-07-10T14:17:42.428Z,5.27
2018-07-10T14:20:11.447Z,5.40
2018-07-10T14:22:40.356Z,5.33
2018-07-10T14:25:09.274Z,5.20
2018-07-10T14:27:37.915Z,5.80
2018-07-10T14:30:06.819Z,5.07
2018-07-10T14:32:35.511Z,5.53
2018-07-10T14:35:04.148Z,4.80
2018-07-10T14:37:32.751Z,5.93
2018-07-10T14:40:01.892Z,5.13
2018-07-10T14:42:30.822Z,4.20
2018-07-10T14:45:03.953Z,4.57
2018-07-10T14:47:33.102Z,4.50
2018-07-10T14:50:02.807Z,4.80
2018-07-10T14:52:31.310Z,4.13
2018-07-10T14:54:59.979Z,4.07
2018-07-10T14:57:28.695Z,4.77
2018-07-10T14:59:57.318Z,4.83
2018-07-10T15:02:25.934Z,3.93
2018-07-10T15:04:54.994Z,4.10
2018-07-10T15:07:23.616Z,4.43
2018-07-10T15:09:52.262Z,3.60
2018-07-10T15:12:21.102Z,3.93
2018-07-10T15:14:49.834Z,3.53
2018-07-10T15:17:23.614Z,3.47
2018-07-10T15:19:52.275Z,3.67
2018-07-10T15:22:20.874Z,3.60
2018-07-10T15:24:49.440Z,3.50
2018-07-10T15:27:18.183Z,4.20
2018-07-10T15:29:47.125Z,3.60
2018-07-10T15:32:15.664Z,3.60
2018-07-10T15:34:44.207Z,3.70
2018-07-10T15:37:12.934Z,3.50
2018-07-10T15:39:41.571Z,3.00
2018-07-10T15:42:10.202Z,3.70
2018-07-10T15:44:38.398Z,3.17
2018-07-10T15:47:06.950Z,3.70
2018-07-10T15:49:35.535Z,3.93
2018-07-10T15:52:04.906Z,3.33
2018-07-10T15:54:33.719Z,3.60
2018-07-10T15:57:02.404Z,4.27
2018-07-10T15:59:31.041Z,3.70
2018-07-10T16:01:59.602Z,2.63
2018-07-10T16:04:28.227Z,2.90
2018-07-10T16:06:56.930Z,2.60
2018-07-10T16:09:25.538Z,3.40
2018-07-10T16:11:58.923Z,3.37
2018-07-10T16:14:28.611Z,3.30
2018-07-10T16:16:57.441Z,2.80
2018-07-10T16:19:31.361Z,2.80
2018-07-10T16:22:04.271Z,3.50
2018-07-10T16:24:41.344Z,2.93
2018-07-10T16:27:09.955Z,2.77
2018-07-10T16:29:38.714Z,2.70
2018-07-10T16:32:08.139Z,3.00
2018-07-10T16:34:37.364Z,3.00
2018-07-10T16:37:05.796Z,2.43
2018-07-10T16:39:34.526Z,2.93
2018-07-10T16:42:08.535Z,2.80
2018-07-10T16:44:38.375Z,2.83
2018-07-10T16:47:11.537Z,3.20
2018-07-10T16:49:45.087Z,2.77
2018-07-10T16:53:19.832Z,2.50
2018-07-10T16:55:48.382Z,2.30
2018-07-10T16:58:16.969Z,2.97
2018-07-10T17:00:45.750Z,2.30
2018-07-10T17:03:14.547Z,3.07
2018-07-10T17:05:43.257Z,2.43
2018-07-10T17:08:11.883Z,3.00
2018-07-10T17:10:40.451Z,3.37
2018-07-10T17:13:09.226Z,3.10
2018-07-10T17:15:37.778Z,2.53
2018-07-10T17:18:06.498Z,3.20
2018-07-10T17:20:35.058Z,2.63
2018-07-10T17:23:03.958Z,3.23
2018-07-10T17:25:32.748Z,3.00
2018-07-10T17:28:01.607Z,2.90
2018-07-10T17:30:30.262Z,2.83
2018-07-10T17:32:59.076Z,2.70
2018-07-10T17:35:27.656Z,2.67
2018-07-10T17:37:56.260Z,2.67
2018-07-10T17:40:24.987Z,3.47
2018-07-10T17:42:53.612Z,2.53
2018-07-10T17:45:23.740Z,2.97
2018-07-10T17:47:52.715Z,3.00
2018-07-10T17:50:22.056Z,2.83
2018-07-10T17:52:51.043Z,2.77
2018-07-10T17:55:19.807Z,3.07
2018-07-10T17:57:50.588Z,3.00
2018-07-10T18:00:19.354Z,2.60
2018-07-10T18:02:47.958Z,2.83
2018-07-10T18:05:16.685Z,2.70
2018-07-10T18:07:45.579Z,2.80
2018-07-10T18:10:14.239Z,3.00
2018-07-10T18:12:42.922Z,2.60
2018-07-10T18:15:11.815Z,2.60
2018-07-10T18:17:40.448Z,2.57
2018-07-10T18:20:09.234Z,2.43
2018-07-10T18:22:37.966Z,2.40
2018-07-10T18:25:06.841Z,2.37
2018-07-10T18:27:35.137Z,2.60
2018-07-10T18:30:03.710Z,2.93
2018-07-10T18:32:32.327Z,2.83
2018-07-10T18:35:00.879Z,2.40
2018-07-10T18:37:29.638Z,3.10
2018-07-10T18:39:58.252Z,2.80
2018-07-10T18:42:26.906Z,2.73
2018-07-10T18:44:55.618Z,3.10
2018-07-10T18:47:24.330Z,3.00
2018-07-10T18:49:55.312Z,2.83
2018-07-10T18:52:27.753Z,2.67
2018-07-10T18:54:58.585Z,2.90
2018-07-10T18:57:42.015Z,2.60
2018-07-10T19:00:10.934Z,3.40
2018-07-10T19:02:49.899Z,2.60
2018-07-10T19:05:18.580Z,2.60
2018-07-10T19:07:47.360Z,2.37
2018-07-10T19:10:16.128Z,3.20
2018-07-10T19:12:44.723Z,2.90
2018-07-10T19:15:13.389Z,2.87
2018-07-10T19:17:42.018Z,2.37
2018-07-10T19:20:12.112Z,2.93
2018-07-10T19:23:03.463Z,3.00
2018-07-10T19:25:33.435Z,3.10
2018-07-10T19:28:02.755Z,2.40
2018-07-10T19:30:46.116Z,2.83
2018-07-10T19:33:14.783Z,2.83
2018-07-10T19:35:43.948Z,2.80
2018-07-10T19:38:13.019Z,2.60
2018-07-10T19:40:41.891Z,3.17
2018-07-10T19:43:10.725Z,2.93
2018-07-10T19:45:42.424Z,3.00
2018-07-10T19:48:11.240Z,3.50
2018-07-10T19:50:40.667Z,3.10
2018-07-10T19:53:09.409Z,2.77
2018-07-10T19:55:39.438Z,2.63
2018-07-10T19:58:42.572Z,2.70
2018-07-10T20:01:18.526Z,3.37
2018-07-10T20:04:10.741Z,2.73
2018-07-10T20:06:49.497Z,8.70
2018-07-10T20:09:19.720Z,4.20
2018-07-10T20:12:09.655Z,2.90
2018-07-10T20:14:49.428Z,3.40
2018-07-10T20:17:19.803Z,2.70
2018-07-10T20:19:57.595Z,2.80
2018-07-10T20:22:34.841Z,3.03
2018-07-10T20:25:12.972Z,4.00
2018-07-10T20:27:49.242Z,2.60
2018-07-10T20:30:27.846Z,3.30
2018-07-10T20:33:03.083Z,2.70
2018-07-10T20:35:33.820Z,2.83
2018-07-10T20:38:02.489Z,2.80
2018-07-10T20:40:35.533Z,3.00
2018-07-10T20:43:05.046Z,2.97
2018-07-10T20:45:34.537Z,2.70
2018-07-10T20:48:03.299Z,2.20
2018-07-10T20:50:34.370Z,3.07
2018-07-10T20:53:14.630Z,3.50
2018-07-10T20:55:49.254Z,3.17
2018-07-10T20:58:18.683Z,3.37
2018-07-10T21:00:58.060Z,2.80
2018-07-10T21:04:06.180Z,2.70
2018-07-10T21:06:44.130Z,2.40
2018-07-10T21:09:14.561Z,9.20
2018-07-10T21:12:20.442Z,3.17
2018-07-10T21:14:56.869Z,2.37
2018-07-10T21:17:33.018Z,2.20
2018-07-10T21:20:10.249Z,2.50
2018-07-10T21:22:53.128Z,2.33
2018-07-10T21:26:31.407Z,2.47
2018-07-10T21:29:07.018Z,2.27
2018-07-10T21:32:09.650Z,2.70
2018-07-10T21:34:45.767Z,2.23
2018-07-10T21:38:21.699Z,2.60
2018-07-10T21:41:59.537Z,2.20
2018-07-10T21:44:40.438Z,2.47
2018-07-10T21:47:50.944Z,2.77
2018-07-10T21:50:25.971Z,2.37
2018-07-10T21:52:54.651Z,2.80
2018-07-10T21:55:23.185Z,2.20
2018-07-10T21:57:52.776Z,2.27
2018-07-10T22:00:27.382Z,2.43
2018-07-10T22:02:56.320Z,1.93
2018-07-10T22:05:24.905Z,2.20
2018-07-10T22:07:53.725Z,2.10
2018-07-10T22:10:22.307Z,2.23
2018-07-10T22:12:52.126Z,1.83
2018-07-10T22:15:21.050Z,2.80
2018-07-10T22:17:49.810Z,2.27
2018-07-10T22:20:18.394Z,1.97
2018-07-10T22:22:47.562Z,2.57
2018-07-10T22:25:16.324Z,2.27
2018-07-10T22:27:44.915Z,2.10
2018-07-10T22:30:21.187Z,2.10
2018-07-10T22:32:54.178Z,1.97
2018-07-10T22:35:23.892Z,1.87
2018-07-10T22:37:53.091Z,2.00
2018-07-10T22:40:21.814Z,2.00
2018-07-10T22:42:50.503Z,2.27
2018-07-10T22:45:19.542Z,1.83
2018-07-10T22:47:48.171Z,1.73
2018-07-10T22:50:20.633Z,2.20
2018-07-10T22:52:54.446Z,1.90
2018-07-10T22:55:28.548Z,1.87
2018-07-10T22:58:04.286Z,1.87
2018-07-10T23:00:34.325Z,1.70
2018-07-10T23:03:16.902Z,1.80
2018-07-10T23:05:46.786Z,2.20
2018-07-10T23:08:16.338Z,1.80
2018-07-10T23:10:46.207Z,1.80
2018-07-10T23:13:15.223Z,1.60
2018-07-10T23:15:44.009Z,1.83
2018-07-10T23:18:12.696Z,2.00
2018-07-10T23:20:41.339Z,2.37
2018-07-10T23:23:10.429Z,1.90
2018-07-10T23:25:39.096Z,1.53
2018-07-10T23:28:07.874Z,1.60
2018-07-10T23:30:40.253Z,2.20
2018-07-10T23:33:11.182Z,1.70
2018-07-10T23:35:41.586Z,1.80
2018-07-10T23:39:16.162Z,1.97
2018-07-10T23:42:50.621Z,2.03
2018-07-10T23:45:21.521Z,1.93
2018-07-10T23:47:51.945Z,2.10
2018-07-10T23:50:29.163Z,2.03
2018-07-10T23:54:01.359Z,2.17
2018-07-10T23:56:29.958Z,1.97
2018-07-10T23:58:58.711Z,2.00
